Egyek, Hungary
Current Conditions -  °F | °C
As of 9:45 AM on Thursday 27 Nov 2014 (Local Time) from LHDC Reporting Station
Moderate Fog Moderate Fog  
Wind Chill: 23°   Ceiling: 500
Heat Index: 28°   Visibility: 0.5mi
Dew Point: 28°   Wind: 5mph
Humidity: 100%   Direction: 90°E
Pressure: 30.24"   Gusts: NA
Location:  47.62°N, 20.89°E
Report Text: LHDC 270745Z 09004KT 0800 FZFG OVC005 M02/M02 Q1024 NOSIG
Loading
Personal Weather Stations






























Interactive Weather Map New forecast layout! Learn more

10-Day Weather Forecast

Advertisements
Track Severe Weather on mobile